sensor_id;sensor_type;location;lat;lon;timestamp;P1;durP1;ratioP1;P2;durP2;ratioP2
23802;SDS011;12082;51.786;6.018;2023-07-20T00:01:06;35.77;;;32.97;;
23802;SDS011;12082;51.786;6.018;2023-07-20T00:03:31;36.30;;;33.23;;
23802;SDS011;12082;51.786;6.018;2023-07-20T00:05:57;40.80;;;37.00;;
23802;SDS011;12082;51.786;6.018;2023-07-20T00:08:22;41.90;;;37.93;;
23802;SDS011;12082;51.786;6.018;2023-07-20T00:10:48;41.57;;;37.80;;
23802;SDS011;12082;51.786;6.018;2023-07-20T00:13:14;42.93;;;38.80;;
23802;SDS011;12082;51.786;6.018;2023-07-20T00:15:41;46.03;;;41.70;;
23802;SDS011;12082;51.786;6.018;2023-07-20T00:18:06;46.47;;;42.10;;
23802;SDS011;12082;51.786;6.018;2023-07-20T00:20:32;44.13;;;40.37;;
23802;SDS011;12082;51.786;6.018;2023-07-20T00:22:58;43.17;;;39.53;;
23802;SDS011;12082;51.786;6.018;2023-07-20T00:25:24;44.73;;;40.20;;
23802;SDS011;12082;51.786;6.018;2023-07-20T00:27:49;40.67;;;37.17;;
23802;SDS011;12082;51.786;6.018;2023-07-20T00:30:15;39.10;;;35.73;;
23802;SDS011;12082;51.786;6.018;2023-07-20T00:32:42;38.70;;;35.10;;
23802;SDS011;12082;51.786;6.018;2023-07-20T00:35:08;39.37;;;35.57;;
23802;SDS011;12082;51.786;6.018;2023-07-20T00:37:34;38.67;;;35.20;;
23802;SDS011;12082;51.786;6.018;2023-07-20T00:40:00;37.90;;;34.63;;
23802;SDS011;12082;51.786;6.018;2023-07-20T00:42:25;35.50;;;32.23;;
23802;SDS011;12082;51.786;6.018;2023-07-20T00:44:51;38.00;;;34.53;;
23802;SDS011;12082;51.786;6.018;2023-07-20T00:47:16;34.80;;;31.90;;
23802;SDS011;12082;51.786;6.018;2023-07-20T00:49:42;39.33;;;35.57;;
23802;SDS011;12082;51.786;6.018;2023-07-20T00:52:08;38.00;;;35.03;;
23802;SDS011;12082;51.786;6.018;2023-07-20T00:54:38;38.00;;;34.57;;
23802;SDS011;12082;51.786;6.018;2023-07-20T00:57:04;36.40;;;33.30;;
23802;SDS011;12082;51.786;6.018;2023-07-20T00:59:32;37.80;;;34.60;;
23802;SDS011;12082;51.786;6.018;2023-07-20T01:01:57;36.23;;;33.23;;
23802;SDS011;12082;51.786;6.018;2023-07-20T01:04:23;40.70;;;36.93;;
23802;SDS011;12082;51.786;6.018;2023-07-20T01:09:31;41.83;;;38.23;;
23802;SDS011;12082;51.786;6.018;2023-07-20T01:12:07;44.87;;;40.40;;
23802;SDS011;12082;51.786;6.018;2023-07-20T01:14:37;45.00;;;40.40;;
23802;SDS011;12082;51.786;6.018;2023-07-20T01:17:03;45.30;;;40.60;;
23802;SDS011;12082;51.786;6.018;2023-07-20T01:19:29;44.43;;;40.30;;
23802;SDS011;12082;51.786;6.018;2023-07-20T01:21:56;43.73;;;39.43;;
23802;SDS011;12082;51.786;6.018;2023-07-20T01:27:22;43.27;;;39.17;;
23802;SDS011;12082;51.786;6.018;2023-07-20T01:32:39;40.33;;;36.30;;
23802;SDS011;12082;51.786;6.018;2023-07-20T01:35:07;40.73;;;37.23;;
23802;SDS011;12082;51.786;6.018;2023-07-20T01:37:35;38.47;;;35.37;;
23802;SDS011;12082;51.786;6.018;2023-07-20T01:40:02;38.87;;;35.57;;
23802;SDS011;12082;51.786;6.018;2023-07-20T01:42:28;37.87;;;34.97;;
23802;SDS011;12082;51.786;6.018;2023-07-20T01:44:54;38.63;;;35.73;;
23802;SDS011;12082;51.786;6.018;2023-07-20T01:47:20;39.17;;;35.97;;
23802;SDS011;12082;51.786;6.018;2023-07-20T01:49:45;40.33;;;37.20;;
23802;SDS011;12082;51.786;6.018;2023-07-20T01:52:11;37.77;;;34.87;;
23802;SDS011;12082;51.786;6.018;2023-07-20T01:54:36;40.30;;;37.03;;
23802;SDS011;12082;51.786;6.018;2023-07-20T01:57:02;38.07;;;35.07;;
23802;SDS011;12082;51.786;6.018;2023-07-20T01:59:29;41.03;;;37.67;;
23802;SDS011;12082;51.786;6.018;2023-07-20T02:01:54;40.27;;;37.07;;
23802;SDS011;12082;51.786;6.018;2023-07-20T02:04:20;40.50;;;37.23;;
23802;SDS011;12082;51.786;6.018;2023-07-20T02:06:45;41.53;;;37.97;;
23802;SDS011;12082;51.786;6.018;2023-07-20T02:09:11;40.87;;;37.60;;
23802;SDS011;12082;51.786;6.018;2023-07-20T02:11:36;38.47;;;35.30;;
23802;SDS011;12082;51.786;6.018;2023-07-20T02:14:02;41.33;;;38.13;;
23802;SDS011;12082;51.786;6.018;2023-07-20T02:16:27;41.27;;;37.90;;
23802;SDS011;12082;51.786;6.018;2023-07-20T02:18:53;41.87;;;38.30;;
23802;SDS011;12082;51.786;6.018;2023-07-20T02:21:22;39.83;;;36.83;;
23802;SDS011;12082;51.786;6.018;2023-07-20T02:23:48;38.33;;;34.93;;
23802;SDS011;12082;51.786;6.018;2023-07-20T02:26:13;38.73;;;35.30;;
23802;SDS011;12082;51.786;6.018;2023-07-20T02:28:39;38.10;;;34.80;;
23802;SDS011;12082;51.786;6.018;2023-07-20T02:31:06;37.30;;;34.40;;
23802;SDS011;12082;51.786;6.018;2023-07-20T02:33:31;35.73;;;33.13;;
23802;SDS011;12082;51.786;6.018;2023-07-20T02:35:57;36.67;;;33.97;;
23802;SDS011;12082;51.786;6.018;2023-07-20T02:38:22;36.57;;;34.03;;
23802;SDS011;12082;51.786;6.018;2023-07-20T02:40:49;38.70;;;35.57;;
23802;SDS011;12082;51.786;6.018;2023-07-20T02:43:15;34.33;;;31.93;;
23802;SDS011;12082;51.786;6.018;2023-07-20T02:45:40;34.13;;;31.63;;
23802;SDS011;12082;51.786;6.018;2023-07-20T02:48:08;34.43;;;31.77;;
23802;SDS011;12082;51.786;6.018;2023-07-20T02:50:34;33.53;;;31.07;;
23802;SDS011;12082;51.786;6.018;2023-07-20T02:53:00;33.20;;;30.83;;
23802;SDS011;12082;51.786;6.018;2023-07-20T02:55:26;34.63;;;32.13;;
23802;SDS011;12082;51.786;6.018;2023-07-20T02:57:51;33.57;;;31.27;;
23802;SDS011;12082;51.786;6.018;2023-07-20T03:00:17;32.63;;;30.43;;
23802;SDS011;12082;51.786;6.018;2023-07-20T03:02:44;33.20;;;30.90;;
23802;SDS011;12082;51.786;6.018;2023-07-20T03:05:12;36.07;;;33.33;;
23802;SDS011;12082;51.786;6.018;2023-07-20T03:07:38;34.43;;;31.97;;
23802;SDS011;12082;51.786;6.018;2023-07-20T03:10:04;33.57;;;31.17;;
23802;SDS011;12082;51.786;6.018;2023-07-20T03:12:34;33.30;;;31.10;;
23802;SDS011;12082;51.786;6.018;2023-07-20T03:14:59;35.10;;;32.80;;
23802;SDS011;12082;51.786;6.018;2023-07-20T03:17:25;34.20;;;32.00;;
23802;SDS011;12082;51.786;6.018;2023-07-20T03:19:50;33.87;;;31.67;;
23802;SDS011;12082;51.786;6.018;2023-07-20T03:22:16;35.10;;;32.80;;
23802;SDS011;12082;51.786;6.018;2023-07-20T03:24:42;34.33;;;32.03;;
23802;SDS011;12082;51.786;6.018;2023-07-20T03:27:07;33.67;;;31.63;;
23802;SDS011;12082;51.786;6.018;2023-07-20T03:29:33;34.20;;;32.07;;
23802;SDS011;12082;51.786;6.018;2023-07-20T03:31:58;36.80;;;34.30;;
23802;SDS011;12082;51.786;6.018;2023-07-20T03:34:24;36.53;;;33.93;;
23802;SDS011;12082;51.786;6.018;2023-07-20T03:36:50;36.00;;;33.90;;
23802;SDS011;12082;51.786;6.018;2023-07-20T03:39:15;37.57;;;35.00;;
23802;SDS011;12082;51.786;6.018;2023-07-20T03:41:41;38.93;;;36.27;;
23802;SDS011;12082;51.786;6.018;2023-07-20T03:44:08;39.30;;;36.70;;
23802;SDS011;12082;51.786;6.018;2023-07-20T03:46:33;44.00;;;40.97;;
23802;SDS011;12082;51.786;6.018;2023-07-20T03:48:59;43.17;;;40.10;;
23802;SDS011;12082;51.786;6.018;2023-07-20T03:51:25;43.80;;;40.97;;
23802;SDS011;12082;51.786;6.018;2023-07-20T03:53:51;44.97;;;41.50;;
23802;SDS011;12082;51.786;6.018;2023-07-20T03:56:16;40.77;;;38.17;;
23802;SDS011;12082;51.786;6.018;2023-07-20T03:58:42;43.63;;;40.83;;
23802;SDS011;12082;51.786;6.018;2023-07-20T04:01:08;40.20;;;37.60;;
23802;SDS011;12082;51.786;6.018;2023-07-20T04:03:34;40.13;;;37.53;;
23802;SDS011;12082;51.786;6.018;2023-07-20T04:06:00;37.77;;;35.43;;
23802;SDS011;12082;51.786;6.018;2023-07-20T04:08:26;40.07;;;37.50;;
23802;SDS011;12082;51.786;6.018;2023-07-20T04:10:51;39.70;;;37.00;;
23802;SDS011;12082;51.786;6.018;2023-07-20T04:13:17;38.53;;;35.97;;
23802;SDS011;12082;51.786;6.018;2023-07-20T04:15:43;37.87;;;35.47;;
23802;SDS011;12082;51.786;6.018;2023-07-20T04:18:09;39.53;;;36.97;;
23802;SDS011;12082;51.786;6.018;2023-07-20T04:20:34;39.33;;;36.83;;
23802;SDS011;12082;51.786;6.018;2023-07-20T04:23:00;41.33;;;38.60;;
23802;SDS011;12082;51.786;6.018;2023-07-20T04:25:25;40.00;;;36.93;;
23802;SDS011;12082;51.786;6.018;2023-07-20T04:27:51;40.23;;;37.73;;
23802;SDS011;12082;51.786;6.018;2023-07-20T04:30:17;39.33;;;36.93;;
23802;SDS011;12082;51.786;6.018;2023-07-20T04:32:47;38.30;;;35.57;;
23802;SDS011;12082;51.786;6.018;2023-07-20T04:35:17;39.33;;;36.73;;
23802;SDS011;12082;51.786;6.018;2023-07-20T04:38:03;39.93;;;37.33;;
23802;SDS011;12082;51.786;6.018;2023-07-20T04:40:28;37.93;;;35.53;;
23802;SDS011;12082;51.786;6.018;2023-07-20T04:42:54;39.53;;;36.93;;
23802;SDS011;12082;51.786;6.018;2023-07-20T04:45:19;40.17;;;37.67;;
23802;SDS011;12082;51.786;6.018;2023-07-20T04:47:48;41.90;;;39.07;;
23802;SDS011;12082;51.786;6.018;2023-07-20T04:50:15;42.57;;;39.83;;
23802;SDS011;12082;51.786;6.018;2023-07-20T04:52:40;42.40;;;39.50;;
23802;SDS011;12082;51.786;6.018;2023-07-20T04:55:06;44.10;;;40.80;;
23802;SDS011;12082;51.786;6.018;2023-07-20T04:57:32;45.43;;;42.43;;
23802;SDS011;12082;51.786;6.018;2023-07-20T04:59:57;47.33;;;43.63;;
23802;SDS011;12082;51.786;6.018;2023-07-20T05:02:23;46.27;;;42.97;;
23802;SDS011;12082;51.786;6.018;2023-07-20T05:04:48;42.93;;;40.23;;
23802;SDS011;12082;51.786;6.018;2023-07-20T05:07:14;44.20;;;41.40;;
23802;SDS011;12082;51.786;6.018;2023-07-20T05:09:40;42.77;;;39.80;;
23802;SDS011;12082;51.786;6.018;2023-07-20T05:12:05;42.00;;;39.27;;
23802;SDS011;12082;51.786;6.018;2023-07-20T05:14:32;40.97;;;38.17;;
23802;SDS011;12082;51.786;6.018;2023-07-20T05:16:57;40.50;;;37.60;;
23802;SDS011;12082;51.786;6.018;2023-07-20T05:19:24;37.90;;;35.40;;
23802;SDS011;12082;51.786;6.018;2023-07-20T05:21:50;39.10;;;36.40;;
23802;SDS011;12082;51.786;6.018;2023-07-20T05:24:16;36.67;;;34.37;;
23802;SDS011;12082;51.786;6.018;2023-07-20T05:26:41;38.40;;;35.53;;
23802;SDS011;12082;51.786;6.018;2023-07-20T05:29:07;37.53;;;35.27;;
23802;SDS011;12082;51.786;6.018;2023-07-20T05:31:32;36.77;;;34.67;;
23802;SDS011;12082;51.786;6.018;2023-07-20T05:33:58;39.20;;;36.40;;
23802;SDS011;12082;51.786;6.018;2023-07-20T05:36:24;38.33;;;35.83;;
23802;SDS011;12082;51.786;6.018;2023-07-20T05:38:49;34.07;;;32.20;;
23802;SDS011;12082;51.786;6.018;2023-07-20T05:41:15;34.43;;;32.33;;
23802;SDS011;12082;51.786;6.018;2023-07-20T05:43:40;34.97;;;32.97;;
23802;SDS011;12082;51.786;6.018;2023-07-20T05:46:07;33.90;;;31.97;;
23802;SDS011;12082;51.786;6.018;2023-07-20T05:48:32;36.20;;;34.10;;
23802;SDS011;12082;51.786;6.018;2023-07-20T05:50:58;38.20;;;35.80;;
23802;SDS011;12082;51.786;6.018;2023-07-20T05:53:24;40.50;;;38.00;;
23802;SDS011;12082;51.786;6.018;2023-07-20T05:55:53;32.80;;;30.80;;
23802;SDS011;12082;51.786;6.018;2023-07-20T05:58:19;27.50;;;25.90;;
23802;SDS011;12082;51.786;6.018;2023-07-20T06:00:47;20.03;;;18.70;;
23802;SDS011;12082;51.786;6.018;2023-07-20T06:03:13;16.50;;;15.47;;
23802;SDS011;12082;51.786;6.018;2023-07-20T06:05:39;12.20;;;11.60;;
23802;SDS011;12082;51.786;6.018;2023-07-20T06:08:04;10.40;;;9.60;;
23802;SDS011;12082;51.786;6.018;2023-07-20T06:10:30;9.63;;;9.03;;
23802;SDS011;12082;51.786;6.018;2023-07-20T06:12:55;9.40;;;8.90;;
23802;SDS011;12082;51.786;6.018;2023-07-20T06:15:28;10.73;;;10.20;;
23802;SDS011;12082;51.786;6.018;2023-07-20T06:17:57;10.67;;;10.00;;
23802;SDS011;12082;51.786;6.018;2023-07-20T06:20:23;9.97;;;9.40;;
23802;SDS011;12082;51.786;6.018;2023-07-20T06:22:49;8.57;;;8.17;;
23802;SDS011;12082;51.786;6.018;2023-07-20T06:25:14;7.30;;;6.97;;
23802;SDS011;12082;51.786;6.018;2023-07-20T06:27:40;8.13;;;7.63;;
23802;SDS011;12082;51.786;6.018;2023-07-20T06:30:07;8.97;;;8.57;;
23802;SDS011;12082;51.786;6.018;2023-07-20T06:32:32;8.63;;;8.23;;
23802;SDS011;12082;51.786;6.018;2023-07-20T06:34:58;7.53;;;7.23;;
23802;SDS011;12082;51.786;6.018;2023-07-20T06:37:23;7.50;;;7.10;;
23802;SDS011;12082;51.786;6.018;2023-07-20T06:39:49;7.27;;;6.90;;
23802;SDS011;12082;51.786;6.018;2023-07-20T06:42:15;7.10;;;6.60;;
23802;SDS011;12082;51.786;6.018;2023-07-20T06:44:40;7.77;;;7.37;;
23802;SDS011;12082;51.786;6.018;2023-07-20T06:47:06;6.90;;;6.60;;
23802;SDS011;12082;51.786;6.018;2023-07-20T06:49:32;8.00;;;7.50;;
23802;SDS011;12082;51.786;6.018;2023-07-20T06:51:58;7.30;;;6.83;;
23802;SDS011;12082;51.786;6.018;2023-07-20T06:54:23;8.07;;;7.57;;
23802;SDS011;12082;51.786;6.018;2023-07-20T06:56:49;8.30;;;7.90;;
23802;SDS011;12082;51.786;6.018;2023-07-20T06:59:15;8.40;;;8.00;;
23802;SDS011;12082;51.786;6.018;2023-07-20T07:01:40;8.70;;;8.10;;
23802;SDS011;12082;51.786;6.018;2023-07-20T07:04:06;9.57;;;9.07;;
23802;SDS011;12082;51.786;6.018;2023-07-20T07:06:31;9.50;;;9.00;;
23802;SDS011;12082;51.786;6.018;2023-07-20T07:08:58;10.07;;;9.37;;
23802;SDS011;12082;51.786;6.018;2023-07-20T07:11:23;11.67;;;11.17;;
23802;SDS011;12082;51.786;6.018;2023-07-20T07:13:49;13.57;;;12.97;;
23802;SDS011;12082;51.786;6.018;2023-07-20T07:16:16;13.35;;;12.60;;
23802;SDS011;12082;51.786;6.018;2023-07-20T07:18:46;14.70;;;13.98;;
23802;SDS011;12082;51.786;6.018;2023-07-20T07:21:12;14.73;;;13.93;;
23802;SDS011;12082;51.786;6.018;2023-07-20T07:23:38;14.20;;;13.50;;
23802;SDS011;12082;51.786;6.018;2023-07-20T07:26:05;16.35;;;15.25;;
23802;SDS011;12082;51.786;6.018;2023-07-20T07:28:30;14.77;;;13.97;;
23802;SDS011;12082;51.786;6.018;2023-07-20T07:30:57;14.93;;;13.93;;
23802;SDS011;12082;51.786;6.018;2023-07-20T07:33:22;15.07;;;14.25;;
23802;SDS011;12082;51.786;6.018;2023-07-20T07:35:49;13.77;;;13.18;;
23802;SDS011;12082;51.786;6.018;2023-07-20T07:38:16;12.88;;;12.27;;
23802;SDS011;12082;51.786;6.018;2023-07-20T07:40:41;14.23;;;13.10;;
23802;SDS011;12082;51.786;6.018;2023-07-20T07:43:07;13.48;;;12.77;;
23802;SDS011;12082;51.786;6.018;2023-07-20T07:45:34;11.98;;;11.48;;
23802;SDS011;12082;51.786;6.018;2023-07-20T07:48:01;9.65;;;9.25;;
23802;SDS011;12082;51.786;6.018;2023-07-20T07:50:27;10.05;;;9.55;;
23802;SDS011;12082;51.786;6.018;2023-07-20T07:52:53;10.90;;;10.40;;
23802;SDS011;12082;51.786;6.018;2023-07-20T07:55:19;11.75;;;11.20;;
23802;SDS011;12082;51.786;6.018;2023-07-20T07:57:44;11.63;;;11.13;;
23802;SDS011;12082;51.786;6.018;2023-07-20T08:00:12;13.80;;;13.07;;
23802;SDS011;12082;51.786;6.018;2023-07-20T08:02:40;12.97;;;12.33;;
23802;SDS011;12082;51.786;6.018;2023-07-20T08:05:07;10.10;;;9.60;;
23802;SDS011;12082;51.786;6.018;2023-07-20T08:07:32;11.20;;;10.50;;
23802;SDS011;12082;51.786;6.018;2023-07-20T08:09:58;10.90;;;10.30;;
23802;SDS011;12082;51.786;6.018;2023-07-20T08:12:25;11.43;;;10.90;;
23802;SDS011;12082;51.786;6.018;2023-07-20T08:14:51;13.50;;;12.70;;
23802;SDS011;12082;51.786;6.018;2023-07-20T08:17:16;13.67;;;13.03;;
23802;SDS011;12082;51.786;6.018;2023-07-20T08:19:42;13.77;;;12.80;;
23802;SDS011;12082;51.786;6.018;2023-07-20T08:22:09;11.23;;;10.63;;
23802;SDS011;12082;51.786;6.018;2023-07-20T08:24:35;11.00;;;10.43;;
23802;SDS011;12082;51.786;6.018;2023-07-20T08:27:04;10.30;;;9.80;;
23802;SDS011;12082;51.786;6.018;2023-07-20T08:29:30;11.27;;;10.77;;
23802;SDS011;12082;51.786;6.018;2023-07-20T08:31:56;11.23;;;10.73;;
23802;SDS011;12082;51.786;6.018;2023-07-20T08:34:21;11.82;;;11.13;;
23802;SDS011;12082;51.786;6.018;2023-07-20T08:36:47;11.00;;;10.50;;
23802;SDS011;12082;51.786;6.018;2023-07-20T08:39:12;11.73;;;11.23;;
23802;SDS011;12082;51.786;6.018;2023-07-20T08:41:38;10.88;;;10.38;;
23802;SDS011;12082;51.786;6.018;2023-07-20T08:44:04;10.68;;;10.15;;
23802;SDS011;12082;51.786;6.018;2023-07-20T08:46:31;10.63;;;10.13;;
23802;SDS011;12082;51.786;6.018;2023-07-20T08:48:58;10.40;;;9.73;;
23802;SDS011;12082;51.786;6.018;2023-07-20T08:51:24;9.67;;;9.27;;
23802;SDS011;12082;51.786;6.018;2023-07-20T08:53:51;10.00;;;9.50;;
23802;SDS011;12082;51.786;6.018;2023-07-20T08:56:17;10.07;;;9.57;;
23802;SDS011;12082;51.786;6.018;2023-07-20T08:58:46;7.82;;;7.38;;
23802;SDS011;12082;51.786;6.018;2023-07-20T09:01:12;7.88;;;7.38;;
23802;SDS011;12082;51.786;6.018;2023-07-20T09:03:39;7.13;;;6.78;;
23802;SDS011;12082;51.786;6.018;2023-07-20T09:06:07;6.22;;;5.93;;
23802;SDS011;12082;51.786;6.018;2023-07-20T09:08:33;7.15;;;5.97;;
23802;SDS011;12082;51.786;6.018;2023-07-20T09:11:03;6.22;;;5.82;;
23802;SDS011;12082;51.786;6.018;2023-07-20T09:13:29;5.30;;;5.00;;
23802;SDS011;12082;51.786;6.018;2023-07-20T09:15:54;5.32;;;5.13;;
23802;SDS011;12082;51.786;6.018;2023-07-20T09:18:27;6.32;;;5.93;;
23802;SDS011;12082;51.786;6.018;2023-07-20T09:20:57;5.63;;;5.22;;
23802;SDS011;12082;51.786;6.018;2023-07-20T09:23:31;5.20;;;5.00;;
23802;SDS011;12082;51.786;6.018;2023-07-20T09:25:58;5.70;;;5.40;;
23802;SDS011;12082;51.786;6.018;2023-07-20T09:28:25;5.78;;;5.47;;
23802;SDS011;12082;51.786;6.018;2023-07-20T09:30:50;5.32;;;5.13;;
23802;SDS011;12082;51.786;6.018;2023-07-20T09:33:19;5.60;;;5.35;;
23802;SDS011;12082;51.786;6.018;2023-07-20T09:35:46;5.05;;;4.82;;
23802;SDS011;12082;51.786;6.018;2023-07-20T09:38:12;5.20;;;4.70;;
23802;SDS011;12082;51.786;6.018;2023-07-20T09:40:40;3.95;;;3.65;;
23802;SDS011;12082;51.786;6.018;2023-07-20T09:43:07;3.90;;;3.70;;
23802;SDS011;12082;51.786;6.018;2023-07-20T09:45:34;3.78;;;3.58;;
23802;SDS011;12082;51.786;6.018;2023-07-20T09:48:04;3.90;;;3.75;;
23802;SDS011;12082;51.786;6.018;2023-07-20T09:50:31;4.43;;;4.13;;
23802;SDS011;12082;51.786;6.018;2023-07-20T09:53:18;5.60;;;5.30;;
23802;SDS011;12082;51.786;6.018;2023-07-20T09:55:45;5.95;;;5.55;;
23802;SDS011;12082;51.786;6.018;2023-07-20T09:58:12;6.70;;;6.40;;
23802;SDS011;12082;51.786;6.018;2023-07-20T10:00:38;8.17;;;7.37;;
23802;SDS011;12082;51.786;6.018;2023-07-20T10:03:05;8.20;;;7.80;;
23802;SDS011;12082;51.786;6.018;2023-07-20T10:05:35;9.77;;;9.27;;
23802;SDS011;12082;51.786;6.018;2023-07-20T10:08:04;10.60;;;10.10;;
23802;SDS011;12082;51.786;6.018;2023-07-20T10:10:30;11.33;;;10.83;;
23802;SDS011;12082;51.786;6.018;2023-07-20T10:12:57;12.97;;;12.37;;
23802;SDS011;12082;51.786;6.018;2023-07-20T10:15:28;13.63;;;13.03;;
23802;SDS011;12082;51.786;6.018;2023-07-20T10:18:14;15.20;;;14.50;;
23802;SDS011;12082;51.786;6.018;2023-07-20T10:21:14;17.53;;;16.73;;
23802;SDS011;12082;51.786;6.018;2023-07-20T10:23:42;17.17;;;16.33;;
23802;SDS011;12082;51.786;6.018;2023-07-20T10:26:08;16.50;;;15.67;;
23802;SDS011;12082;51.786;6.018;2023-07-20T10:28:35;17.50;;;16.50;;
23802;SDS011;12082;51.786;6.018;2023-07-20T10:31:02;16.77;;;15.93;;
23802;SDS011;12082;51.786;6.018;2023-07-20T10:33:28;16.13;;;15.43;;
23802;SDS011;12082;51.786;6.018;2023-07-20T10:35:57;17.20;;;16.10;;
23802;SDS011;12082;51.786;6.018;2023-07-20T10:38:42;17.53;;;16.73;;
23802;SDS011;12082;51.786;6.018;2023-07-20T10:41:21;17.60;;;16.80;;
23802;SDS011;12082;51.786;6.018;2023-07-20T10:44:01;17.50;;;16.27;;
23802;SDS011;12082;51.786;6.018;2023-07-20T10:49:06;17.70;;;16.80;;
23802;SDS011;12082;51.786;6.018;2023-07-20T10:51:39;17.80;;;16.90;;
23802;SDS011;12082;51.786;6.018;2023-07-20T10:56:44;17.67;;;16.77;;
23802;SDS011;12082;51.786;6.018;2023-07-20T10:59:19;18.60;;;17.80;;
23802;SDS011;12082;51.786;6.018;2023-07-20T11:01:48;17.00;;;16.20;;
23802;SDS011;12082;51.786;6.018;2023-07-20T11:04:16;18.17;;;17.37;;
23802;SDS011;12082;51.786;6.018;2023-07-20T11:06:44;20.50;;;19.43;;
23802;SDS011;12082;51.786;6.018;2023-07-20T11:09:11;19.83;;;18.73;;
23802;SDS011;12082;51.786;6.018;2023-07-20T11:11:40;19.30;;;18.33;;
23802;SDS011;12082;51.786;6.018;2023-07-20T11:14:08;20.13;;;19.23;;
23802;SDS011;12082;51.786;6.018;2023-07-20T11:16:42;19.20;;;18.30;;
23802;SDS011;12082;51.786;6.018;2023-07-20T11:19:16;19.60;;;18.60;;
23802;SDS011;12082;51.786;6.018;2023-07-20T11:24:17;19.17;;;17.87;;
23802;SDS011;12082;51.786;6.018;2023-07-20T11:26:43;17.73;;;16.77;;
23802;SDS011;12082;51.786;6.018;2023-07-20T11:29:10;19.33;;;18.33;;
23802;SDS011;12082;51.786;6.018;2023-07-20T11:31:40;17.97;;;16.97;;
23802;SDS011;12082;51.786;6.018;2023-07-20T11:34:11;16.47;;;15.67;;
23802;SDS011;12082;51.786;6.018;2023-07-20T11:36:39;16.57;;;15.87;;
23802;SDS011;12082;51.786;6.018;2023-07-20T11:39:06;15.23;;;14.43;;
23802;SDS011;12082;51.786;6.018;2023-07-20T11:41:34;15.07;;;14.30;;
23802;SDS011;12082;51.786;6.018;2023-07-20T11:44:00;14.97;;;14.27;;
23802;SDS011;12082;51.786;6.018;2023-07-20T11:46:27;15.03;;;14.23;;
23802;SDS011;12082;51.786;6.018;2023-07-20T11:48:58;15.10;;;14.30;;
23802;SDS011;12082;51.786;6.018;2023-07-20T11:51:25;14.97;;;14.27;;
23802;SDS011;12082;51.786;6.018;2023-07-20T11:53:52;16.80;;;16.00;;
23802;SDS011;12082;51.786;6.018;2023-07-20T11:56:18;15.20;;;14.50;;
23802;SDS011;12082;51.786;6.018;2023-07-20T11:58:44;15.57;;;14.87;;
23802;SDS011;12082;51.786;6.018;2023-07-20T12:01:11;16.27;;;15.57;;
23802;SDS011;12082;51.786;6.018;2023-07-20T12:03:38;16.13;;;15.43;;
23802;SDS011;12082;51.786;6.018;2023-07-20T12:06:10;18.53;;;17.73;;
23802;SDS011;12082;51.786;6.018;2023-07-20T12:08:39;18.83;;;17.93;;
23802;SDS011;12082;51.786;6.018;2023-07-20T12:11:06;18.30;;;17.30;;
23802;SDS011;12082;51.786;6.018;2023-07-20T12:14:06;18.30;;;17.40;;
23802;SDS011;12082;51.786;6.018;2023-07-20T12:16:26;17.30;;;16.50;;
23802;SDS011;12082;51.786;6.018;2023-07-20T12:18:59;16.33;;;15.33;;
23802;SDS011;12082;51.786;6.018;2023-07-20T12:21:26;16.87;;;16.10;;
23802;SDS011;12082;51.786;6.018;2023-07-20T12:23:52;16.90;;;16.10;;
23802;SDS011;12082;51.786;6.018;2023-07-20T12:26:17;15.63;;;14.93;;
23802;SDS011;12082;51.786;6.018;2023-07-20T12:28:47;14.50;;;13.90;;
23802;SDS011;12082;51.786;6.018;2023-07-20T12:31:12;15.77;;;14.97;;
23802;SDS011;12082;51.786;6.018;2023-07-20T12:33:38;16.20;;;15.50;;
23802;SDS011;12082;51.786;6.018;2023-07-20T12:36:04;15.60;;;14.90;;
23802;SDS011;12082;51.786;6.018;2023-07-20T12:38:30;15.00;;;14.30;;
23802;SDS011;12082;51.786;6.018;2023-07-20T12:40:56;14.43;;;13.73;;
23802;SDS011;12082;51.786;6.018;2023-07-20T12:43:23;13.93;;;13.23;;
23802;SDS011;12082;51.786;6.018;2023-07-20T12:45:49;14.53;;;13.73;;
23802;SDS011;12082;51.786;6.018;2023-07-20T12:48:14;13.93;;;13.23;;
23802;SDS011;12082;51.786;6.018;2023-07-20T12:50:40;12.23;;;11.53;;
23802;SDS011;12082;51.786;6.018;2023-07-20T12:53:05;12.63;;;11.93;;
23802;SDS011;12082;51.786;6.018;2023-07-20T12:55:31;12.37;;;11.77;;
23802;SDS011;12082;51.786;6.018;2023-07-20T12:57:56;12.47;;;11.73;;
23802;SDS011;12082;51.786;6.018;2023-07-20T13:00:22;10.70;;;10.10;;
23802;SDS011;12082;51.786;6.018;2023-07-20T13:02:48;11.50;;;10.90;;
23802;SDS011;12082;51.786;6.018;2023-07-20T13:05:14;11.70;;;10.80;;
23802;SDS011;12082;51.786;6.018;2023-07-20T13:07:40;10.83;;;10.30;;
23802;SDS011;12082;51.786;6.018;2023-07-20T13:10:07;11.00;;;10.50;;
23802;SDS011;12082;51.786;6.018;2023-07-20T13:12:34;11.87;;;11.17;;
23802;SDS011;12082;51.786;6.018;2023-07-20T13:15:01;12.07;;;11.47;;
23802;SDS011;12082;51.786;6.018;2023-07-20T13:17:30;11.87;;;11.27;;
23802;SDS011;12082;51.786;6.018;2023-07-20T13:19:57;12.60;;;11.73;;
23802;SDS011;12082;51.786;6.018;2023-07-20T13:22:22;12.57;;;11.97;;
23802;SDS011;12082;51.786;6.018;2023-07-20T13:24:52;12.83;;;12.23;;
23802;SDS011;12082;51.786;6.018;2023-07-20T13:27:17;12.60;;;11.90;;
23802;SDS011;12082;51.786;6.018;2023-07-20T13:29:44;12.33;;;11.73;;
23802;SDS011;12082;51.786;6.018;2023-07-20T13:32:12;11.80;;;11.20;;
23802;SDS011;12082;51.786;6.018;2023-07-20T13:34:38;13.47;;;12.47;;
23802;SDS011;12082;51.786;6.018;2023-07-20T13:37:04;11.87;;;11.27;;
23802;SDS011;12082;51.786;6.018;2023-07-20T13:39:30;12.13;;;11.50;;
23802;SDS011;12082;51.786;6.018;2023-07-20T13:41:56;11.70;;;11.00;;
23802;SDS011;12082;51.786;6.018;2023-07-20T13:44:22;13.27;;;12.27;;
23802;SDS011;12082;51.786;6.018;2023-07-20T13:46:48;12.43;;;11.40;;
23802;SDS011;12082;51.786;6.018;2023-07-20T13:49:14;12.90;;;12.10;;
23802;SDS011;12082;51.786;6.018;2023-07-20T13:51:40;13.27;;;12.63;;
23802;SDS011;12082;51.786;6.018;2023-07-20T13:54:06;13.00;;;12.13;;
23802;SDS011;12082;51.786;6.018;2023-07-20T13:56:32;13.50;;;12.90;;
23802;SDS011;12082;51.786;6.018;2023-07-20T13:58:58;13.63;;;12.47;;
23802;SDS011;12082;51.786;6.018;2023-07-20T14:01:23;16.00;;;15.13;;
23802;SDS011;12082;51.786;6.018;2023-07-20T14:03:50;12.00;;;11.40;;
23802;SDS011;12082;51.786;6.018;2023-07-20T14:06:16;12.27;;;11.67;;
23802;SDS011;12082;51.786;6.018;2023-07-20T14:08:42;12.80;;;12.20;;
23802;SDS011;12082;51.786;6.018;2023-07-20T14:11:11;13.73;;;12.83;;
23802;SDS011;12082;51.786;6.018;2023-07-20T14:13:37;13.50;;;12.70;;
23802;SDS011;12082;51.786;6.018;2023-07-20T14:16:03;13.10;;;12.40;;
23802;SDS011;12082;51.786;6.018;2023-07-20T14:18:29;13.10;;;12.40;;
23802;SDS011;12082;51.786;6.018;2023-07-20T14:20:54;14.47;;;13.67;;
23802;SDS011;12082;51.786;6.018;2023-07-20T14:23:20;14.57;;;13.50;;
23802;SDS011;12082;51.786;6.018;2023-07-20T14:25:46;15.20;;;14.10;;
23802;SDS011;12082;51.786;6.018;2023-07-20T14:28:11;19.83;;;18.57;;
23802;SDS011;12082;51.786;6.018;2023-07-20T14:30:37;16.03;;;14.87;;
23802;SDS011;12082;51.786;6.018;2023-07-20T14:33:03;16.33;;;15.23;;
23802;SDS011;12082;51.786;6.018;2023-07-20T14:35:28;15.67;;;14.87;;
23802;SDS011;12082;51.786;6.018;2023-07-20T14:37:55;15.30;;;14.50;;
23802;SDS011;12082;51.786;6.018;2023-07-20T14:40:21;15.63;;;14.73;;